sensor_id;sensor_type;location;lat;lon;timestamp;P1;durP1;ratioP1;P2;durP2;ratioP2
43337;SDS011;28933;52.492;13.434;2024-02-26T06:14:34;14.48;;;9.27;;
43337;SDS011;28933;52.492;13.434;2024-02-26T06:17:20;13.40;;;9.38;;
43337;SDS011;28933;52.492;13.434;2024-02-26T06:20:06;12.50;;;9.32;;
43337;SDS011;28933;52.492;13.434;2024-02-26T06:22:57;13.10;;;10.23;;
43337;SDS011;28933;52.492;13.434;2024-02-26T06:25:42;13.75;;;9.07;;
43337;SDS011;28933;52.492;13.434;2024-02-26T06:28:28;13.68;;;9.52;;
43337;SDS011;28933;52.492;13.434;2024-02-26T06:31:17;13.77;;;9.07;;
43337;SDS011;28933;52.492;13.434;2024-02-26T06:34:03;17.75;;;9.93;;
43337;SDS011;28933;52.492;13.434;2024-02-26T06:36:49;15.70;;;10.18;;
43337;SDS011;28933;52.492;13.434;2024-02-26T06:39:35;13.35;;;9.68;;
43337;SDS011;28933;52.492;13.434;2024-02-26T06:42:21;16.63;;;11.60;;
43337;SDS011;28933;52.492;13.434;2024-02-26T06:45:07;14.80;;;10.43;;
43337;SDS011;28933;52.492;13.434;2024-02-26T06:47:53;14.68;;;10.68;;
43337;SDS011;28933;52.492;13.434;2024-02-26T06:50:47;13.60;;;10.25;;
43337;SDS011;28933;52.492;13.434;2024-02-26T06:53:33;17.15;;;10.52;;
43337;SDS011;28933;52.492;13.434;2024-02-26T06:56:19;15.07;;;10.98;;
43337;SDS011;28933;52.492;13.434;2024-02-26T06:59:04;14.15;;;10.30;;
43337;SDS011;28933;52.492;13.434;2024-02-26T07:01:50;13.90;;;9.40;;
43337;SDS011;28933;52.492;13.434;2024-02-26T07:04:36;14.65;;;10.95;;
43337;SDS011;28933;52.492;13.434;2024-02-26T07:07:22;15.63;;;11.57;;
43337;SDS011;28933;52.492;13.434;2024-02-26T07:10:09;14.02;;;10.48;;
43337;SDS011;28933;52.492;13.434;2024-02-26T07:12:57;15.63;;;10.60;;
43337;SDS011;28933;52.492;13.434;2024-02-26T07:15:44;18.38;;;11.65;;
43337;SDS011;28933;52.492;13.434;2024-02-26T07:18:30;17.38;;;10.60;;
43337;SDS011;28933;52.492;13.434;2024-02-26T07:21:15;20.30;;;11.38;;
43337;SDS011;28933;52.492;13.434;2024-02-26T07:24:01;15.95;;;11.60;;
43337;SDS011;28933;52.492;13.434;2024-02-26T07:26:47;16.38;;;11.50;;
43337;SDS011;28933;52.492;13.434;2024-02-26T07:29:33;18.38;;;11.25;;
43337;SDS011;28933;52.492;13.434;2024-02-26T07:32:19;16.02;;;11.15;;
43337;SDS011;28933;52.492;13.434;2024-02-26T07:35:05;17.23;;;12.07;;
43337;SDS011;28933;52.492;13.434;2024-02-26T07:37:51;15.43;;;11.32;;
43337;SDS011;28933;52.492;13.434;2024-02-26T07:40:37;16.58;;;11.45;;
43337;SDS011;28933;52.492;13.434;2024-02-26T07:43:23;17.63;;;12.43;;
43337;SDS011;28933;52.492;13.434;2024-02-26T07:46:11;15.05;;;11.70;;
43337;SDS011;28933;52.492;13.434;2024-02-26T07:48:58;17.70;;;11.45;;
43337;SDS011;28933;52.492;13.434;2024-02-26T07:51:43;18.48;;;11.55;;
43337;SDS011;28933;52.492;13.434;2024-02-26T07:54:29;19.27;;;13.02;;
43337;SDS011;28933;52.492;13.434;2024-02-26T07:57:15;19.75;;;13.57;;
43337;SDS011;28933;52.492;13.434;2024-02-26T08:00:03;15.70;;;11.50;;
43337;SDS011;28933;52.492;13.434;2024-02-26T08:02:49;18.50;;;12.82;;
43337;SDS011;28933;52.492;13.434;2024-02-26T08:05:35;17.42;;;12.43;;
43337;SDS011;28933;52.492;13.434;2024-02-26T08:08:25;19.92;;;12.80;;
43337;SDS011;28933;52.492;13.434;2024-02-26T08:11:11;15.20;;;10.50;;
43337;SDS011;28933;52.492;13.434;2024-02-26T08:13:59;15.95;;;11.77;;
43337;SDS011;28933;52.492;13.434;2024-02-26T08:16:45;17.08;;;11.98;;
43337;SDS011;28933;52.492;13.434;2024-02-26T08:19:31;16.95;;;11.43;;
43337;SDS011;28933;52.492;13.434;2024-02-26T08:22:17;16.40;;;11.95;;
43337;SDS011;28933;52.492;13.434;2024-02-26T08:25:03;17.08;;;11.73;;
43337;SDS011;28933;52.492;13.434;2024-02-26T08:27:52;17.13;;;12.20;;
43337;SDS011;28933;52.492;13.434;2024-02-26T08:30:38;16.02;;;11.57;;
43337;SDS011;28933;52.492;13.434;2024-02-26T08:33:23;18.38;;;12.38;;
43337;SDS011;28933;52.492;13.434;2024-02-26T08:36:11;20.35;;;14.27;;
43337;SDS011;28933;52.492;13.434;2024-02-26T08:38:57;20.63;;;12.50;;
43337;SDS011;28933;52.492;13.434;2024-02-26T08:41:43;21.15;;;13.82;;
43337;SDS011;28933;52.492;13.434;2024-02-26T08:44:29;20.05;;;13.52;;
43337;SDS011;28933;52.492;13.434;2024-02-26T08:47:15;20.38;;;13.88;;
43337;SDS011;28933;52.492;13.434;2024-02-26T08:50:01;19.13;;;13.38;;
43337;SDS011;28933;52.492;13.434;2024-02-26T08:52:47;19.20;;;13.20;;
43337;SDS011;28933;52.492;13.434;2024-02-26T08:55:36;19.80;;;12.35;;
43337;SDS011;28933;52.492;13.434;2024-02-26T08:58:22;22.13;;;13.98;;
43337;SDS011;28933;52.492;13.434;2024-02-26T09:01:08;16.13;;;12.68;;
43337;SDS011;28933;52.492;13.434;2024-02-26T09:03:53;16.52;;;11.30;;
43337;SDS011;28933;52.492;13.434;2024-02-26T09:06:39;18.60;;;13.25;;
43337;SDS011;28933;52.492;13.434;2024-02-26T09:09:25;20.98;;;13.57;;
43337;SDS011;28933;52.492;13.434;2024-02-26T09:12:11;19.38;;;13.07;;
43337;SDS011;28933;52.492;13.434;2024-02-26T09:14:57;19.08;;;13.35;;
43337;SDS011;28933;52.492;13.434;2024-02-26T09:17:43;16.85;;;12.52;;
43337;SDS011;28933;52.492;13.434;2024-02-26T09:20:30;17.48;;;11.30;;
43337;SDS011;28933;52.492;13.434;2024-02-26T09:23:16;18.02;;;12.55;;
43337;SDS011;28933;52.492;13.434;2024-02-26T09:26:02;16.35;;;12.95;;
43337;SDS011;28933;52.492;13.434;2024-02-26T09:28:50;18.92;;;13.57;;
43337;SDS011;28933;52.492;13.434;2024-02-26T09:31:36;18.73;;;12.05;;
43337;SDS011;28933;52.492;13.434;2024-02-26T09:34:22;19.85;;;13.13;;
43337;SDS011;28933;52.492;13.434;2024-02-26T09:37:08;15.13;;;11.73;;
43337;SDS011;28933;52.492;13.434;2024-02-26T09:39:54;18.65;;;11.40;;
43337;SDS011;28933;52.492;13.434;2024-02-26T09:42:43;16.73;;;11.57;;
43337;SDS011;28933;52.492;13.434;2024-02-26T09:45:29;18.33;;;11.98;;
43337;SDS011;28933;52.492;13.434;2024-02-26T09:48:18;15.75;;;12.20;;
43337;SDS011;28933;52.492;13.434;2024-02-26T09:51:04;18.10;;;11.77;;
43337;SDS011;28933;52.492;13.434;2024-02-26T09:53:53;15.95;;;10.95;;
43337;SDS011;28933;52.492;13.434;2024-02-26T09:56:41;15.50;;;11.57;;
43337;SDS011;28933;52.492;13.434;2024-02-26T09:59:33;19.63;;;11.63;;
43337;SDS011;28933;52.492;13.434;2024-02-26T10:02:25;15.18;;;10.60;;
43337;SDS011;28933;52.492;13.434;2024-02-26T10:05:12;15.05;;;11.68;;
43337;SDS011;28933;52.492;13.434;2024-02-26T10:08:00;17.38;;;12.88;;
43337;SDS011;28933;52.492;13.434;2024-02-26T10:10:46;18.27;;;12.07;;
43337;SDS011;28933;52.492;13.434;2024-02-26T10:13:32;15.82;;;10.98;;
43337;SDS011;28933;52.492;13.434;2024-02-26T10:16:19;14.52;;;10.18;;
43337;SDS011;28933;52.492;13.434;2024-02-26T10:19:05;13.93;;;9.38;;
43337;SDS011;28933;52.492;13.434;2024-02-26T10:21:54;14.68;;;10.23;;
43337;SDS011;28933;52.492;13.434;2024-02-26T10:24:43;13.95;;;10.68;;
43337;SDS011;28933;52.492;13.434;2024-02-26T10:27:32;15.05;;;9.77;;
43337;SDS011;28933;52.492;13.434;2024-02-26T10:30:19;12.48;;;9.73;;
43337;SDS011;28933;52.492;13.434;2024-02-26T10:33:11;17.65;;;10.88;;
43337;SDS011;28933;52.492;13.434;2024-02-26T10:35:56;13.30;;;10.02;;
43337;SDS011;28933;52.492;13.434;2024-02-26T10:38:43;12.88;;;9.27;;
43337;SDS011;28933;52.492;13.434;2024-02-26T10:41:29;11.77;;;8.77;;
43337;SDS011;28933;52.492;13.434;2024-02-26T10:44:15;12.13;;;8.50;;
43337;SDS011;28933;52.492;13.434;2024-02-26T10:47:01;13.57;;;9.85;;
43337;SDS011;28933;52.492;13.434;2024-02-26T10:49:48;14.05;;;8.77;;
43337;SDS011;28933;52.492;13.434;2024-02-26T10:52:35;11.35;;;9.13;;
43337;SDS011;28933;52.492;13.434;2024-02-26T10:55:22;13.45;;;8.73;;
43337;SDS011;28933;52.492;13.434;2024-02-26T10:58:08;11.93;;;8.30;;
43337;SDS011;28933;52.492;13.434;2024-02-26T11:00:56;12.05;;;8.77;;
43337;SDS011;28933;52.492;13.434;2024-02-26T11:03:43;16.73;;;8.60;;
43337;SDS011;28933;52.492;13.434;2024-02-26T11:06:29;10.45;;;7.53;;
43337;SDS011;28933;52.492;13.434;2024-02-26T11:09:15;9.77;;;7.38;;
43337;SDS011;28933;52.492;13.434;2024-02-26T11:12:02;9.40;;;7.47;;
43337;SDS011;28933;52.492;13.434;2024-02-26T11:14:55;11.13;;;8.48;;
43337;SDS011;28933;52.492;13.434;2024-02-26T11:17:43;10.40;;;7.68;;
43337;SDS011;28933;52.492;13.434;2024-02-26T11:20:31;10.90;;;7.53;;
43337;SDS011;28933;52.492;13.434;2024-02-26T11:23:18;9.25;;;7.43;;
43337;SDS011;28933;52.492;13.434;2024-02-26T11:26:04;10.95;;;6.95;;
43337;SDS011;28933;52.492;13.434;2024-02-26T11:28:52;9.73;;;6.65;;
43337;SDS011;28933;52.492;13.434;2024-02-26T11:31:39;9.60;;;6.28;;
43337;SDS011;28933;52.492;13.434;2024-02-26T11:34:25;10.63;;;7.35;;
43337;SDS011;28933;52.492;13.434;2024-02-26T11:37:13;8.75;;;6.60;;
43337;SDS011;28933;52.492;13.434;2024-02-26T11:40:00;9.40;;;7.07;;
43337;SDS011;28933;52.492;13.434;2024-02-26T11:42:47;10.93;;;8.23;;
43337;SDS011;28933;52.492;13.434;2024-02-26T11:48:28;9.80;;;6.60;;
43337;SDS011;28933;52.492;13.434;2024-02-26T11:51:14;8.48;;;6.28;;
43337;SDS011;28933;52.492;13.434;2024-02-26T11:54:00;10.43;;;6.75;;
43337;SDS011;28933;52.492;13.434;2024-02-26T11:56:46;11.15;;;7.25;;
43337;SDS011;28933;52.492;13.434;2024-02-26T11:59:38;9.38;;;6.63;;
43337;SDS011;28933;52.492;13.434;2024-02-26T12:05:46;9.25;;;6.70;;
43337;SDS011;28933;52.492;13.434;2024-02-26T12:08:33;10.93;;;7.05;;
43337;SDS011;28933;52.492;13.434;2024-02-26T12:11:20;12.82;;;7.72;;
43337;SDS011;28933;52.492;13.434;2024-02-26T12:14:07;9.20;;;7.25;;
43337;SDS011;28933;52.492;13.434;2024-02-26T12:16:55;10.55;;;6.88;;
43337;SDS011;28933;52.492;13.434;2024-02-26T12:19:41;10.60;;;7.05;;
43337;SDS011;28933;52.492;13.434;2024-02-26T12:22:28;10.05;;;7.97;;
43337;SDS011;28933;52.492;13.434;2024-02-26T12:25:14;10.77;;;7.38;;
43337;SDS011;28933;52.492;13.434;2024-02-26T12:28:00;10.93;;;6.88;;
43337;SDS011;28933;52.492;13.434;2024-02-26T12:30:46;11.98;;;7.00;;
43337;SDS011;28933;52.492;13.434;2024-02-26T12:33:32;9.13;;;6.18;;
43337;SDS011;28933;52.492;13.434;2024-02-26T12:36:18;8.90;;;6.25;;
43337;SDS011;28933;52.492;13.434;2024-02-26T12:39:04;8.75;;;5.55;;
43337;SDS011;28933;52.492;13.434;2024-02-26T12:41:55;12.57;;;8.07;;
43337;SDS011;28933;52.492;13.434;2024-02-26T12:44:45;10.90;;;8.13;;
43337;SDS011;28933;52.492;13.434;2024-02-26T12:47:31;10.65;;;7.30;;
43337;SDS011;28933;52.492;13.434;2024-02-26T12:50:17;13.93;;;7.78;;
43337;SDS011;28933;52.492;13.434;2024-02-26T12:53:03;14.48;;;7.90;;
43337;SDS011;28933;52.492;13.434;2024-02-26T12:55:50;9.93;;;7.22;;
43337;SDS011;28933;52.492;13.434;2024-02-26T12:58:37;10.32;;;8.10;;
43337;SDS011;28933;52.492;13.434;2024-02-26T13:01:24;10.18;;;7.43;;
43337;SDS011;28933;52.492;13.434;2024-02-26T13:04:11;10.68;;;7.20;;
43337;SDS011;28933;52.492;13.434;2024-02-26T13:06:57;11.85;;;8.68;;
43337;SDS011;28933;52.492;13.434;2024-02-26T13:09:48;9.43;;;6.70;;
43337;SDS011;28933;52.492;13.434;2024-02-26T13:12:35;8.40;;;6.47;;
43337;SDS011;28933;52.492;13.434;2024-02-26T13:15:21;9.88;;;6.70;;
43337;SDS011;28933;52.492;13.434;2024-02-26T13:18:11;10.10;;;6.78;;
43337;SDS011;28933;52.492;13.434;2024-02-26T13:23:54;9.55;;;6.30;;
43337;SDS011;28933;52.492;13.434;2024-02-26T13:26:40;8.02;;;5.95;;
43337;SDS011;28933;52.492;13.434;2024-02-26T13:29:26;8.95;;;5.22;;
43337;SDS011;28933;52.492;13.434;2024-02-26T13:32:12;9.32;;;6.15;;
43337;SDS011;28933;52.492;13.434;2024-02-26T13:35:11;8.05;;;5.97;;
43337;SDS011;28933;52.492;13.434;2024-02-26T13:37:57;6.40;;;5.00;;
43337;SDS011;28933;52.492;13.434;2024-02-26T13:40:44;8.70;;;5.03;;
43337;SDS011;28933;52.492;13.434;2024-02-26T13:43:30;5.80;;;4.05;;
43337;SDS011;28933;52.492;13.434;2024-02-26T13:46:16;10.18;;;5.38;;
43337;SDS011;28933;52.492;13.434;2024-02-26T13:49:02;8.68;;;4.93;;
43337;SDS011;28933;52.492;13.434;2024-02-26T13:51:48;6.78;;;5.28;;
43337;SDS011;28933;52.492;13.434;2024-02-26T13:54:33;8.27;;;4.95;;
43337;SDS011;28933;52.492;13.434;2024-02-26T13:57:20;8.15;;;5.25;;
43337;SDS011;28933;52.492;13.434;2024-02-26T14:00:07;9.48;;;6.32;;
43337;SDS011;28933;52.492;13.434;2024-02-26T14:02:55;7.82;;;5.25;;
43337;SDS011;28933;52.492;13.434;2024-02-26T14:05:41;8.38;;;4.72;;
43337;SDS011;28933;52.492;13.434;2024-02-26T14:08:27;10.10;;;5.43;;
43337;SDS011;28933;52.492;13.434;2024-02-26T14:11:13;10.48;;;4.82;;
43337;SDS011;28933;52.492;13.434;2024-02-26T14:13:59;8.55;;;5.60;;
43337;SDS011;28933;52.492;13.434;2024-02-26T14:16:45;7.70;;;4.95;;
43337;SDS011;28933;52.492;13.434;2024-02-26T14:19:31;7.93;;;5.45;;
43337;SDS011;28933;52.492;13.434;2024-02-26T14:22:17;8.05;;;5.97;;
43337;SDS011;28933;52.492;13.434;2024-02-26T14:25:03;9.07;;;5.40;;
43337;SDS011;28933;52.492;13.434;2024-02-26T14:27:49;8.15;;;5.93;;
43337;SDS011;28933;52.492;13.434;2024-02-26T14:30:35;12.23;;;6.10;;
43337;SDS011;28933;52.492;13.434;2024-02-26T14:33:21;8.80;;;5.97;;
43337;SDS011;28933;52.492;13.434;2024-02-26T14:36:07;10.20;;;6.05;;
43337;SDS011;28933;52.492;13.434;2024-02-26T14:38:53;8.80;;;5.55;;
43337;SDS011;28933;52.492;13.434;2024-02-26T14:41:39;8.88;;;6.00;;
43337;SDS011;28933;52.492;13.434;2024-02-26T14:44:25;9.70;;;6.10;;
43337;SDS011;28933;52.492;13.434;2024-02-26T14:47:11;9.30;;;5.13;;
43337;SDS011;28933;52.492;13.434;2024-02-26T14:49:57;9.48;;;5.90;;
43337;SDS011;28933;52.492;13.434;2024-02-26T14:52:43;7.88;;;6.20;;
43337;SDS011;28933;52.492;13.434;2024-02-26T14:55:29;8.65;;;6.20;;
43337;SDS011;28933;52.492;13.434;2024-02-26T14:58:15;9.43;;;5.80;;
43337;SDS011;28933;52.492;13.434;2024-02-26T15:01:02;9.18;;;6.47;;
43337;SDS011;28933;52.492;13.434;2024-02-26T15:03:48;13.20;;;6.30;;
43337;SDS011;28933;52.492;13.434;2024-02-26T15:06:34;10.50;;;5.57;;
43337;SDS011;28933;52.492;13.434;2024-02-26T15:09:23;10.63;;;6.80;;
43337;SDS011;28933;52.492;13.434;2024-02-26T15:12:09;9.15;;;5.50;;
43337;SDS011;28933;52.492;13.434;2024-02-26T15:14:55;8.25;;;6.05;;
43337;SDS011;28933;52.492;13.434;2024-02-26T15:17:42;8.48;;;5.35;;
43337;SDS011;28933;52.492;13.434;2024-02-26T15:20:28;9.40;;;6.55;;
43337;SDS011;28933;52.492;13.434;2024-02-26T15:23:15;9.55;;;5.80;;
43337;SDS011;28933;52.492;13.434;2024-02-26T15:26:02;9.13;;;6.20;;
43337;SDS011;28933;52.492;13.434;2024-02-26T15:28:49;7.97;;;5.75;;
43337;SDS011;28933;52.492;13.434;2024-02-26T15:31:35;10.27;;;6.32;;
43337;SDS011;28933;52.492;13.434;2024-02-26T15:34:21;10.88;;;7.10;;
43337;SDS011;28933;52.492;13.434;2024-02-26T15:37:07;10.45;;;6.35;;
43337;SDS011;28933;52.492;13.434;2024-02-26T15:39:53;8.93;;;6.50;;
43337;SDS011;28933;52.492;13.434;2024-02-26T15:42:39;11.13;;;6.78;;
43337;SDS011;28933;52.492;13.434;2024-02-26T15:45:25;10.77;;;6.65;;
43337;SDS011;28933;52.492;13.434;2024-02-26T15:48:11;12.52;;;6.80;;
43337;SDS011;28933;52.492;13.434;2024-02-26T15:50:58;10.05;;;6.60;;
43337;SDS011;28933;52.492;13.434;2024-02-26T15:53:44;12.60;;;7.55;;
43337;SDS011;28933;52.492;13.434;2024-02-26T15:56:30;12.18;;;7.38;;
43337;SDS011;28933;52.492;13.434;2024-02-26T15:59:17;11.70;;;7.45;;
43337;SDS011;28933;52.492;13.434;2024-02-26T16:02:05;11.95;;;7.72;;
43337;SDS011;28933;52.492;13.434;2024-02-26T16:04:51;11.32;;;8.07;;
43337;SDS011;28933;52.492;13.434;2024-02-26T16:07:38;9.88;;;7.60;;
43337;SDS011;28933;52.492;13.434;2024-02-26T16:10:28;13.18;;;8.10;;
43337;SDS011;28933;52.492;13.434;2024-02-26T16:13:15;13.75;;;9.05;;
43337;SDS011;28933;52.492;13.434;2024-02-26T16:16:07;12.18;;;8.63;;
43337;SDS011;28933;52.492;13.434;2024-02-26T16:19:04;15.30;;;8.85;;
43337;SDS011;28933;52.492;13.434;2024-02-26T16:21:52;14.48;;;9.70;;
43337;SDS011;28933;52.492;13.434;2024-02-26T16:24:38;13.25;;;8.98;;
43337;SDS011;28933;52.492;13.434;2024-02-26T16:27:24;14.20;;;9.75;;
43337;SDS011;28933;52.492;13.434;2024-02-26T16:30:10;13.73;;;9.60;;
43337;SDS011;28933;52.492;13.434;2024-02-26T16:32:58;13.93;;;9.80;;
43337;SDS011;28933;52.492;13.434;2024-02-26T16:35:44;16.95;;;11.40;;
43337;SDS011;28933;52.492;13.434;2024-02-26T16:38:30;14.35;;;10.32;;
43337;SDS011;28933;52.492;13.434;2024-02-26T16:41:16;15.73;;;10.45;;
43337;SDS011;28933;52.492;13.434;2024-02-26T16:44:01;13.75;;;10.48;;
43337;SDS011;28933;52.492;13.434;2024-02-26T16:46:48;15.43;;;10.98;;
43337;SDS011;28933;52.492;13.434;2024-02-26T16:49:34;16.88;;;11.57;;
43337;SDS011;28933;52.492;13.434;2024-02-26T16:52:20;18.85;;;10.75;;
43337;SDS011;28933;52.492;13.434;2024-02-26T16:55:07;20.83;;;11.70;;
43337;SDS011;28933;52.492;13.434;2024-02-26T16:57:54;15.00;;;10.52;;
43337;SDS011;28933;52.492;13.434;2024-02-26T17:00:41;14.73;;;10.60;;
43337;SDS011;28933;52.492;13.434;2024-02-26T17:03:27;14.82;;;9.25;;
43337;SDS011;28933;52.492;13.434;2024-02-26T17:06:13;15.13;;;10.27;;
43337;SDS011;28933;52.492;13.434;2024-02-26T17:09:01;11.68;;;8.88;;
43337;SDS011;28933;52.492;13.434;2024-02-26T17:11:49;15.15;;;9.90;;
43337;SDS011;28933;52.492;13.434;2024-02-26T17:14:38;12.25;;;8.95;;
43337;SDS011;28933;52.492;13.434;2024-02-26T17:17:24;13.32;;;9.60;;
43337;SDS011;28933;52.492;13.434;2024-02-26T17:20:10;12.90;;;8.82;;
43337;SDS011;28933;52.492;13.434;2024-02-26T17:22:56;15.50;;;9.43;;
43337;SDS011;28933;52.492;13.434;2024-02-26T17:25:42;13.05;;;8.35;;
43337;SDS011;28933;52.492;13.434;2024-02-26T17:28:28;13.80;;;10.18;;
43337;SDS011;28933;52.492;13.434;2024-02-26T17:31:15;15.90;;;9.82;;
43337;SDS011;28933;52.492;13.434;2024-02-26T17:34:02;17.77;;;11.95;;
43337;SDS011;28933;52.492;13.434;2024-02-26T17:36:48;16.00;;;9.85;;
43337;SDS011;28933;52.492;13.434;2024-02-26T17:39:34;15.85;;;11.20;;
43337;SDS011;28933;52.492;13.434;2024-02-26T17:42:20;21.20;;;12.10;;
43337;SDS011;28933;52.492;13.434;2024-02-26T17:45:06;22.42;;;13.15;;
43337;SDS011;28933;52.492;13.434;2024-02-26T17:47:55;20.67;;;12.07;;
43337;SDS011;28933;52.492;13.434;2024-02-26T17:50:41;22.02;;;10.75;;
43337;SDS011;28933;52.492;13.434;2024-02-26T17:53:27;23.58;;;13.00;;
43337;SDS011;28933;52.492;13.434;2024-02-26T17:56:13;20.02;;;13.60;;
43337;SDS011;28933;52.492;13.434;2024-02-26T17:59:00;22.13;;;12.80;;
43337;SDS011;28933;52.492;13.434;2024-02-26T18:01:46;21.45;;;14.25;;
43337;SDS011;28933;52.492;13.434;2024-02-26T18:04:32;19.20;;;12.95;;
43337;SDS011;28933;52.492;13.434;2024-02-26T18:07:18;23.10;;;12.90;;
43337;SDS011;28933;52.492;13.434;2024-02-26T18:10:05;21.63;;;14.40;;
43337;SDS011;28933;52.492;13.434;2024-02-26T18:12:54;23.63;;;13.32;;
43337;SDS011;28933;52.492;13.434;2024-02-26T18:15:44;18.05;;;12.20;;
43337;SDS011;28933;52.492;13.434;2024-02-26T18:18:29;22.58;;;11.90;;
43337;SDS011;28933;52.492;13.434;2024-02-26T18:21:16;19.00;;;11.65;;
43337;SDS011;28933;52.492;13.434;2024-02-26T18:24:03;18.92;;;10.82;;
43337;SDS011;28933;52.492;13.434;2024-02-26T18:26:49;18.85;;;11.23;;
43337;SDS011;28933;52.492;13.434;2024-02-26T18:29:37;16.15;;;11.18;;
43337;SDS011;28933;52.492;13.434;2024-02-26T18:32:23;14.65;;;10.07;;
43337;SDS011;28933;52.492;13.434;2024-02-26T18:35:10;17.15;;;10.85;;
43337;SDS011;28933;52.492;13.434;2024-02-26T18:37:56;15.80;;;10.70;;
43337;SDS011;28933;52.492;13.434;2024-02-26T18:40:42;15.80;;;10.50;;
43337;SDS011;28933;52.492;13.434;2024-02-26T18:43:28;15.38;;;10.30;;
43337;SDS011;28933;52.492;13.434;2024-02-26T18:46:15;14.93;;;10.52;;
43337;SDS011;28933;52.492;13.434;2024-02-26T18:49:01;14.13;;;9.80;;
43337;SDS011;28933;52.492;13.434;2024-02-26T18:51:47;14.63;;;9.48;;
43337;SDS011;28933;52.492;13.434;2024-02-26T18:54:34;17.20;;;10.27;;
43337;SDS011;28933;52.492;13.434;2024-02-26T18:57:20;16.58;;;8.43;;
43337;SDS011;28933;52.492;13.434;2024-02-26T19:00:06;12.85;;;9.25;;
43337;SDS011;28933;52.492;13.434;2024-02-26T19:02:54;14.20;;;8.98;;
43337;SDS011;28933;52.492;13.434;2024-02-26T19:05:40;11.10;;;7.28;;
43337;SDS011;28933;52.492;13.434;2024-02-26T19:08:26;13.55;;;8.75;;
43337;SDS011;28933;52.492;13.434;2024-02-26T19:11:12;15.23;;;9.38;;
43337;SDS011;28933;52.492;13.434;2024-02-26T19:13:58;10.95;;;7.30;;
43337;SDS011;28933;52.492;13.434;2024-02-26T19:16:44;10.85;;;8.38;;
43337;SDS011;28933;52.492;13.434;2024-02-26T19:19:30;14.07;;;9.23;;
43337;SDS011;28933;52.492;13.434;2024-02-26T19:22:16;11.93;;;8.32;;
43337;SDS011;28933;52.492;13.434;2024-02-26T19:25:02;15.98;;;8.65;;
43337;SDS011;28933;52.492;13.434;2024-02-26T19:27:48;14.60;;;7.97;;
43337;SDS011;28933;52.492;13.434;2024-02-26T19:30:34;12.52;;;7.68;;
43337;SDS011;28933;52.492;13.434;2024-02-26T19:33:20;12.65;;;7.68;;
43337;SDS011;28933;52.492;13.434;2024-02-26T19:36:06;13.27;;;7.85;;
43337;SDS011;28933;52.492;13.434;2024-02-26T19:38:52;19.30;;;9.38;;
43337;SDS011;28933;52.492;13.434;2024-02-26T19:41:38;12.73;;;7.50;;
43337;SDS011;28933;52.492;13.434;2024-02-26T19:44:24;13.35;;;8.27;;
43337;SDS011;28933;52.492;13.434;2024-02-26T19:47:10;10.85;;;7.95;;
43337;SDS011;28933;52.492;13.434;2024-02-26T19:49:56;10.63;;;7.35;;
43337;SDS011;28933;52.492;13.434;2024-02-26T19:52:42;14.23;;;7.95;;
43337;SDS011;28933;52.492;13.434;2024-02-26T19:55:28;12.27;;;7.20;;
43337;SDS011;28933;52.492;13.434;2024-02-26T19:58:15;10.35;;;7.65;;
43337;SDS011;28933;52.492;13.434;2024-02-26T20:01:01;11.52;;;7.38;;
43337;SDS011;28933;52.492;13.434;2024-02-26T20:03:47;11.50;;;7.60;;
43337;SDS011;28933;52.492;13.434;2024-02-26T20:06:33;10.30;;;6.60;;
43337;SDS011;28933;52.492;13.434;2024-02-26T20:09:19;11.40;;;6.93;;
43337;SDS011;28933;52.492;13.434;2024-02-26T20:12:07;11.63;;;7.60;;
43337;SDS011;28933;52.492;13.434;2024-02-26T20:14:53;11.20;;;6.90;;
43337;SDS011;28933;52.492;13.434;2024-02-26T20:17:39;8.93;;;6.85;;
43337;SDS011;28933;52.492;13.434;2024-02-26T20:20:25;10.73;;;7.72;;
43337;SDS011;28933;52.492;13.434;2024-02-26T20:23:14;11.05;;;7.45;;
43337;SDS011;28933;52.492;13.434;2024-02-26T20:26:00;13.20;;;8.27;;
43337;SDS011;28933;52.492;13.434;2024-02-26T20:28:46;10.77;;;7.35;;
43337;SDS011;28933;52.492;13.434;2024-02-26T20:31:32;11.38;;;7.15;;
43337;SDS011;28933;52.492;13.434;2024-02-26T20:34:18;11.80;;;7.65;;
43337;SDS011;28933;52.492;13.434;2024-02-26T20:37:04;11.73;;;7.82;;
43337;SDS011;28933;52.492;13.434;2024-02-26T20:39:50;14.38;;;8.15;;
43337;SDS011;28933;52.492;13.434;2024-02-26T20:42:36;11.57;;;7.13;;
43337;SDS011;28933;52.492;13.434;2024-02-26T20:45:22;12.25;;;8.45;;
43337;SDS011;28933;52.492;13.434;2024-02-26T20:48:09;12.07;;;7.80;;
43337;SDS011;28933;52.492;13.434;2024-02-26T20:50:55;9.43;;;6.82;;
43337;SDS011;28933;52.492;13.434;2024-02-26T20:53:41;12.45;;;7.88;;
43337;SDS011;28933;52.492;13.434;2024-02-26T20:56:28;12.82;;;8.05;;
43337;SDS011;28933;52.492;13.434;2024-02-26T20:59:14;11.57;;;8.65;;
43337;SDS011;28933;52.492;13.434;2024-02-26T21:02:01;12.77;;;8.18;;
43337;SDS011;28933;52.492;13.434;2024-02-26T21:04:47;10.73;;;7.10;;
43337;SDS011;28933;52.492;13.434;2024-02-26T21:07:33;12.02;;;8.05;;
43337;SDS011;28933;52.492;13.434;2024-02-26T21:10:19;10.95;;;7.20;;
43337;SDS011;28933;52.492;13.434;2024-02-26T21:13:07;9.73;;;6.85;;
43337;SDS011;28933;52.492;13.434;2024-02-26T21:15:53;11.70;;;7.43;;
43337;SDS011;28933;52.492;13.434;2024-02-26T21:18:39;12.68;;;7.32;;
43337;SDS011;28933;52.492;13.434;2024-02-26T21:21:25;10.77;;;7.55;;
43337;SDS011;28933;52.492;13.434;2024-02-26T21:24:13;15.40;;;9.07;;
43337;SDS011;28933;52.492;13.434;2024-02-26T21:26:59;12.43;;;7.45;;
43337;SDS011;28933;52.492;13.434;2024-02-26T21:29:45;10.38;;;7.95;;
43337;SDS011;28933;52.492;13.434;2024-02-26T21:32:31;9.88;;;6.72;;
43337;SDS011;28933;52.492;13.434;2024-02-26T21:35:19;10.32;;;7.28;;
43337;SDS011;28933;52.492;13.434;2024-02-26T21:38:05;10.85;;;7.30;;
43337;SDS011;28933;52.492;13.434;2024-02-26T21:40:50;9.60;;;7.13;;
43337;SDS011;28933;52.492;13.434;2024-02-26T21:43:36;9.43;;;6.88;;
43337;SDS011;28933;52.492;13.434;2024-02-26T21:46:23;8.77;;;6.68;;
43337;SDS011;28933;52.492;13.434;2024-02-26T21:49:09;9.18;;;6.40;;
43337;SDS011;28933;52.492;13.434;2024-02-26T21:51:55;7.90;;;6.18;;
43337;SDS011;28933;52.492;13.434;2024-02-26T21:54:48;8.45;;;5.68;;
43337;SDS011;28933;52.492;13.434;2024-02-26T21:57:35;9.15;;;5.80;;
43337;SDS011;28933;52.492;13.434;2024-02-26T22:00:21;8.07;;;5.72;;
43337;SDS011;28933;52.492;13.434;2024-02-26T22:03:07;11.18;;;6.72;;
43337;SDS011;28933;52.492;13.434;2024-02-26T22:05:53;8.27;;;5.70;;
43337;SDS011;28933;52.492;13.434;2024-02-26T22:08:39;9.70;;;6.00;;
43337;SDS011;28933;52.492;13.434;2024-02-26T22:11:26;11.98;;;6.28;;
43337;SDS011;28933;52.492;13.434;2024-02-26T22:14:12;7.68;;;5.70;;
43337;SDS011;28933;52.492;13.434;2024-02-26T22:16:57;9.20;;;6.47;;
43337;SDS011;28933;52.492;13.434;2024-02-26T22:19:43;9.38;;;6.13;;
43337;SDS011;28933;52.492;13.434;2024-02-26T22:22:29;7.80;;;6.22;;
43337;SDS011;28933;52.492;13.434;2024-02-26T22:25:16;12.50;;;7.25;;
43337;SDS011;28933;52.492;13.434;2024-02-26T22:28:02;8.43;;;5.15;;
43337;SDS011;28933;52.492;13.434;2024-02-26T22:30:48;8.88;;;5.40;;
43337;SDS011;28933;52.492;13.434;2024-02-26T22:33:34;7.47;;;5.13;;
43337;SDS011;28933;52.492;13.434;2024-02-26T22:36:20;10.27;;;5.85;;